sensor_id;sensor_type;location;lat;lon;timestamp;P1;durP1;ratioP1;P2;durP2;ratioP2
33862;SDS011;20158;51.436;-2.742;2023-08-06T00:00:49;1.35;;;1.25;;
33862;SDS011;20158;51.436;-2.742;2023-08-06T00:03:15;1.30;;;0.88;;
33862;SDS011;20158;51.436;-2.742;2023-08-06T00:05:42;2.63;;;1.17;;
33862;SDS011;20158;51.436;-2.742;2023-08-06T00:08:08;1.55;;;1.05;;
33862;SDS011;20158;51.436;-2.742;2023-08-06T00:10:34;1.10;;;1.00;;
33862;SDS011;20158;51.436;-2.742;2023-08-06T00:13:00;1.33;;;1.05;;
33862;SDS011;20158;51.436;-2.742;2023-08-06T00:15:26;1.30;;;1.20;;
33862;SDS011;20158;51.436;-2.742;2023-08-06T00:17:52;1.17;;;0.90;;
33862;SDS011;20158;51.436;-2.742;2023-08-06T00:20:18;2.03;;;1.10;;
33862;SDS011;20158;51.436;-2.742;2023-08-06T00:22:44;1.20;;;1.10;;
33862;SDS011;20158;51.436;-2.742;2023-08-06T00:25:10;1.63;;;1.10;;
33862;SDS011;20158;51.436;-2.742;2023-08-06T00:27:36;1.42;;;1.20;;
33862;SDS011;20158;51.436;-2.742;2023-08-06T00:30:03;1.48;;;1.38;;
33862;SDS011;20158;51.436;-2.742;2023-08-06T00:32:30;1.38;;;1.15;;
33862;SDS011;20158;51.436;-2.742;2023-08-06T00:34:56;1.33;;;1.17;;
33862;SDS011;20158;51.436;-2.742;2023-08-06T00:37:23;1.80;;;1.25;;
33862;SDS011;20158;51.436;-2.742;2023-08-06T00:39:49;1.10;;;1.00;;
33862;SDS011;20158;51.436;-2.742;2023-08-06T00:42:15;2.17;;;1.25;;
33862;SDS011;20158;51.436;-2.742;2023-08-06T00:44:45;0.90;;;0.90;;
33862;SDS011;20158;51.436;-2.742;2023-08-06T00:47:12;1.38;;;1.00;;
33862;SDS011;20158;51.436;-2.742;2023-08-06T00:49:38;2.03;;;1.23;;
33862;SDS011;20158;51.436;-2.742;2023-08-06T00:52:05;1.92;;;1.20;;
33862;SDS011;20158;51.436;-2.742;2023-08-06T00:54:36;1.98;;;0.68;;
33862;SDS011;20158;51.436;-2.742;2023-08-06T00:57:02;1.65;;;1.27;;
33862;SDS011;20158;51.436;-2.742;2023-08-06T00:59:30;1.27;;;1.00;;
33862;SDS011;20158;51.436;-2.742;2023-08-06T01:01:56;3.30;;;1.40;;
33862;SDS011;20158;51.436;-2.742;2023-08-06T01:04:22;2.03;;;1.35;;
33862;SDS011;20158;51.436;-2.742;2023-08-06T01:06:51;1.00;;;1.00;;
33862;SDS011;20158;51.436;-2.742;2023-08-06T01:17:22;3.00;;;1.50;;
33862;SDS011;20158;51.436;-2.742;2023-08-06T01:19:52;1.27;;;1.17;;
33862;SDS011;20158;51.436;-2.742;2023-08-06T01:22:18;1.83;;;1.38;;
33862;SDS011;20158;51.436;-2.742;2023-08-06T01:24:47;1.33;;;0.98;;
33862;SDS011;20158;51.436;-2.742;2023-08-06T01:27:29;2.42;;;1.13;;
33862;SDS011;20158;51.436;-2.742;2023-08-06T01:30:10;1.33;;;1.00;;
33862;SDS011;20158;51.436;-2.742;2023-08-06T01:32:40;1.65;;;1.33;;
33862;SDS011;20158;51.436;-2.742;2023-08-06T01:35:10;1.48;;;1.33;;
33862;SDS011;20158;51.436;-2.742;2023-08-06T01:37:37;1.67;;;1.17;;
33862;SDS011;20158;51.436;-2.742;2023-08-06T01:40:10;1.35;;;1.25;;
33862;SDS011;20158;51.436;-2.742;2023-08-06T01:45:03;1.70;;;1.20;;
33862;SDS011;20158;51.436;-2.742;2023-08-06T01:47:30;1.30;;;1.10;;
33862;SDS011;20158;51.436;-2.742;2023-08-06T01:49:57;0.90;;;0.90;;
33862;SDS011;20158;51.436;-2.742;2023-08-06T01:52:23;1.38;;;1.02;;
33862;SDS011;20158;51.436;-2.742;2023-08-06T01:54:49;2.17;;;1.30;;
33862;SDS011;20158;51.436;-2.742;2023-08-06T01:57:14;2.83;;;1.45;;
33862;SDS011;20158;51.436;-2.742;2023-08-06T01:59:41;1.42;;;1.13;;
33862;SDS011;20158;51.436;-2.742;2023-08-06T02:02:07;1.58;;;1.10;;
33862;SDS011;20158;51.436;-2.742;2023-08-06T02:04:33;2.53;;;1.60;;
33862;SDS011;20158;51.436;-2.742;2023-08-06T02:06:59;2.33;;;1.10;;
33862;SDS011;20158;51.436;-2.742;2023-08-06T02:09:25;1.15;;;0.95;;
33862;SDS011;20158;51.436;-2.742;2023-08-06T02:11:51;2.45;;;2.13;;
33862;SDS011;20158;51.436;-2.742;2023-08-06T02:14:17;2.85;;;1.60;;
33862;SDS011;20158;51.436;-2.742;2023-08-06T02:16:43;3.17;;;1.33;;
33862;SDS011;20158;51.436;-2.742;2023-08-06T02:19:09;1.38;;;1.27;;
33862;SDS011;20158;51.436;-2.742;2023-08-06T02:21:35;1.70;;;1.10;;
33862;SDS011;20158;51.436;-2.742;2023-08-06T02:24:01;2.45;;;1.33;;
33862;SDS011;20158;51.436;-2.742;2023-08-06T02:26:29;1.13;;;1.02;;
33862;SDS011;20158;51.436;-2.742;2023-08-06T02:28:55;1.65;;;1.02;;
33862;SDS011;20158;51.436;-2.742;2023-08-06T02:31:21;1.58;;;1.48;;
33862;SDS011;20158;51.436;-2.742;2023-08-06T02:33:47;2.88;;;1.33;;
33862;SDS011;20158;51.436;-2.742;2023-08-06T02:36:13;1.60;;;1.50;;
33862;SDS011;20158;51.436;-2.742;2023-08-06T02:38:39;2.13;;;1.60;;
33862;SDS011;20158;51.436;-2.742;2023-08-06T02:41:05;2.15;;;1.52;;
33862;SDS011;20158;51.436;-2.742;2023-08-06T02:43:32;1.52;;;1.30;;
33862;SDS011;20158;51.436;-2.742;2023-08-06T02:45:59;1.33;;;1.05;;
33862;SDS011;20158;51.436;-2.742;2023-08-06T02:48:26;2.47;;;1.20;;
33862;SDS011;20158;51.436;-2.742;2023-08-06T02:50:56;1.20;;;0.98;;
33862;SDS011;20158;51.436;-2.742;2023-08-06T02:53:25;1.40;;;1.30;;
33862;SDS011;20158;51.436;-2.742;2023-08-06T02:55:52;2.13;;;1.60;;
33862;SDS011;20158;51.436;-2.742;2023-08-06T02:58:25;2.17;;;1.27;;
33862;SDS011;20158;51.436;-2.742;2023-08-06T03:01:10;2.45;;;1.58;;
33862;SDS011;20158;51.436;-2.742;2023-08-06T03:03:46;1.35;;;1.23;;
33862;SDS011;20158;51.436;-2.742;2023-08-06T03:06:20;3.33;;;1.60;;
33862;SDS011;20158;51.436;-2.742;2023-08-06T03:08:50;2.90;;;1.10;;
33862;SDS011;20158;51.436;-2.742;2023-08-06T03:11:16;1.15;;;1.02;;
33862;SDS011;20158;51.436;-2.742;2023-08-06T03:13:43;1.50;;;1.02;;
33862;SDS011;20158;51.436;-2.742;2023-08-06T03:16:10;2.20;;;1.48;;
33862;SDS011;20158;51.436;-2.742;2023-08-06T03:18:36;2.17;;;1.48;;
33862;SDS011;20158;51.436;-2.742;2023-08-06T03:21:04;1.50;;;1.40;;
33862;SDS011;20158;51.436;-2.742;2023-08-06T03:23:31;1.67;;;1.10;;
33862;SDS011;20158;51.436;-2.742;2023-08-06T03:26:01;1.92;;;1.30;;
33862;SDS011;20158;51.436;-2.742;2023-08-06T03:28:29;1.45;;;1.35;;
33862;SDS011;20158;51.436;-2.742;2023-08-06T03:30:59;2.50;;;1.38;;
33862;SDS011;20158;51.436;-2.742;2023-08-06T03:33:29;1.75;;;1.35;;
33862;SDS011;20158;51.436;-2.742;2023-08-06T03:35:57;1.75;;;1.15;;
33862;SDS011;20158;51.436;-2.742;2023-08-06T03:38:24;1.95;;;1.38;;
33862;SDS011;20158;51.436;-2.742;2023-08-06T03:40:50;1.70;;;1.20;;
33862;SDS011;20158;51.436;-2.742;2023-08-06T03:43:16;1.85;;;1.20;;
33862;SDS011;20158;51.436;-2.742;2023-08-06T03:45:43;3.10;;;1.20;;
33862;SDS011;20158;51.436;-2.742;2023-08-06T03:48:09;1.58;;;1.48;;
33862;SDS011;20158;51.436;-2.742;2023-08-06T03:50:36;1.40;;;1.30;;
33862;SDS011;20158;51.436;-2.742;2023-08-06T03:53:02;1.42;;;1.27;;
33862;SDS011;20158;51.436;-2.742;2023-08-06T03:55:28;1.40;;;1.20;;
33862;SDS011;20158;51.436;-2.742;2023-08-06T03:57:54;1.52;;;1.42;;
33862;SDS011;20158;51.436;-2.742;2023-08-06T04:00:21;1.67;;;1.40;;
33862;SDS011;20158;51.436;-2.742;2023-08-06T04:02:51;3.45;;;1.27;;
33862;SDS011;20158;51.436;-2.742;2023-08-06T04:05:17;1.63;;;1.30;;
33862;SDS011;20158;51.436;-2.742;2023-08-06T04:07:43;1.38;;;1.27;;
33862;SDS011;20158;51.436;-2.742;2023-08-06T04:10:09;3.90;;;1.30;;
33862;SDS011;20158;51.436;-2.742;2023-08-06T04:12:35;1.35;;;1.25;;
33862;SDS011;20158;51.436;-2.742;2023-08-06T04:15:03;1.52;;;1.10;;
33862;SDS011;20158;51.436;-2.742;2023-08-06T04:17:30;1.85;;;1.50;;
33862;SDS011;20158;51.436;-2.742;2023-08-06T04:19:55;2.95;;;1.73;;
33862;SDS011;20158;51.436;-2.742;2023-08-06T04:22:24;1.83;;;1.10;;
33862;SDS011;20158;51.436;-2.742;2023-08-06T04:24:50;1.50;;;1.20;;
33862;SDS011;20158;51.436;-2.742;2023-08-06T04:27:18;1.20;;;1.10;;
33862;SDS011;20158;51.436;-2.742;2023-08-06T04:29:45;1.38;;;1.27;;
33862;SDS011;20158;51.436;-2.742;2023-08-06T04:32:11;2.20;;;1.70;;
33862;SDS011;20158;51.436;-2.742;2023-08-06T04:34:42;1.55;;;1.45;;
33862;SDS011;20158;51.436;-2.742;2023-08-06T04:37:09;2.15;;;1.17;;
33862;SDS011;20158;51.436;-2.742;2023-08-06T04:39:36;1.63;;;0.93;;
33862;SDS011;20158;51.436;-2.742;2023-08-06T04:42:02;1.40;;;0.95;;
33862;SDS011;20158;51.436;-2.742;2023-08-06T04:44:28;1.58;;;1.30;;
33862;SDS011;20158;51.436;-2.742;2023-08-06T04:46:54;1.60;;;1.50;;
33862;SDS011;20158;51.436;-2.742;2023-08-06T04:49:20;1.42;;;1.00;;
33862;SDS011;20158;51.436;-2.742;2023-08-06T04:51:46;1.38;;;1.05;;
33862;SDS011;20158;51.436;-2.742;2023-08-06T04:54:12;1.70;;;1.13;;
33862;SDS011;20158;51.436;-2.742;2023-08-06T04:56:38;1.65;;;1.30;;
33862;SDS011;20158;51.436;-2.742;2023-08-06T04:59:04;1.42;;;1.23;;
33862;SDS011;20158;51.436;-2.742;2023-08-06T05:01:31;1.80;;;1.10;;
33862;SDS011;20158;51.436;-2.742;2023-08-06T05:03:57;1.80;;;1.08;;
33862;SDS011;20158;51.436;-2.742;2023-08-06T05:06:23;2.92;;;1.35;;
33862;SDS011;20158;51.436;-2.742;2023-08-06T05:08:49;1.48;;;1.30;;
33862;SDS011;20158;51.436;-2.742;2023-08-06T05:11:15;1.73;;;1.10;;
33862;SDS011;20158;51.436;-2.742;2023-08-06T05:13:41;1.80;;;1.70;;
33862;SDS011;20158;51.436;-2.742;2023-08-06T05:16:07;2.10;;;1.17;;
33862;SDS011;20158;51.436;-2.742;2023-08-06T05:18:33;1.60;;;1.00;;
33862;SDS011;20158;51.436;-2.742;2023-08-06T05:20:59;1.27;;;1.00;;
33862;SDS011;20158;51.436;-2.742;2023-08-06T05:23:25;2.33;;;1.98;;
33862;SDS011;20158;51.436;-2.742;2023-08-06T05:25:51;4.88;;;1.30;;
33862;SDS011;20158;51.436;-2.742;2023-08-06T05:28:17;4.43;;;1.85;;
33862;SDS011;20158;51.436;-2.742;2023-08-06T05:30:43;1.85;;;1.65;;
33862;SDS011;20158;51.436;-2.742;2023-08-06T05:33:09;3.20;;;1.40;;
33862;SDS011;20158;51.436;-2.742;2023-08-06T05:35:35;1.40;;;1.27;;
33862;SDS011;20158;51.436;-2.742;2023-08-06T05:38:01;1.48;;;1.38;;
33862;SDS011;20158;51.436;-2.742;2023-08-06T05:40:27;2.35;;;1.88;;
33862;SDS011;20158;51.436;-2.742;2023-08-06T05:42:53;2.95;;;1.48;;
33862;SDS011;20158;51.436;-2.742;2023-08-06T05:45:20;5.30;;;1.25;;
33862;SDS011;20158;51.436;-2.742;2023-08-06T05:47:47;2.42;;;1.33;;
33862;SDS011;20158;51.436;-2.742;2023-08-06T05:50:13;3.67;;;2.03;;
33862;SDS011;20158;51.436;-2.742;2023-08-06T05:52:39;2.95;;;1.50;;
33862;SDS011;20158;51.436;-2.742;2023-08-06T05:55:05;2.25;;;1.50;;
33862;SDS011;20158;51.436;-2.742;2023-08-06T05:57:32;2.17;;;1.30;;
33862;SDS011;20158;51.436;-2.742;2023-08-06T05:59:58;1.80;;;1.60;;
33862;SDS011;20158;51.436;-2.742;2023-08-06T06:02:24;2.92;;;1.30;;
33862;SDS011;20158;51.436;-2.742;2023-08-06T06:04:50;1.88;;;1.48;;
33862;SDS011;20158;51.436;-2.742;2023-08-06T06:07:16;5.78;;;2.28;;
33862;SDS011;20158;51.436;-2.742;2023-08-06T06:09:43;3.28;;;2.10;;
33862;SDS011;20158;51.436;-2.742;2023-08-06T06:12:09;2.92;;;1.33;;
33862;SDS011;20158;51.436;-2.742;2023-08-06T06:14:35;2.67;;;1.80;;
33862;SDS011;20158;51.436;-2.742;2023-08-06T06:17:01;5.03;;;2.05;;
33862;SDS011;20158;51.436;-2.742;2023-08-06T06:19:27;2.65;;;1.50;;
33862;SDS011;20158;51.436;-2.742;2023-08-06T06:21:53;2.35;;;1.30;;
33862;SDS011;20158;51.436;-2.742;2023-08-06T06:24:19;4.10;;;1.52;;
33862;SDS011;20158;51.436;-2.742;2023-08-06T06:26:45;4.07;;;1.60;;
33862;SDS011;20158;51.436;-2.742;2023-08-06T06:29:11;2.95;;;1.17;;
33862;SDS011;20158;51.436;-2.742;2023-08-06T06:31:37;2.70;;;1.20;;
33862;SDS011;20158;51.436;-2.742;2023-08-06T06:34:03;4.25;;;1.42;;
33862;SDS011;20158;51.436;-2.742;2023-08-06T06:36:29;8.88;;;1.60;;
33862;SDS011;20158;51.436;-2.742;2023-08-06T06:38:54;2.03;;;1.45;;
33862;SDS011;20158;51.436;-2.742;2023-08-06T06:41:21;2.47;;;1.60;;
33862;SDS011;20158;51.436;-2.742;2023-08-06T06:43:47;3.15;;;1.30;;
33862;SDS011;20158;51.436;-2.742;2023-08-06T06:46:13;2.30;;;1.20;;
33862;SDS011;20158;51.436;-2.742;2023-08-06T06:48:39;2.67;;;1.30;;
33862;SDS011;20158;51.436;-2.742;2023-08-06T06:51:05;3.70;;;1.50;;
33862;SDS011;20158;51.436;-2.742;2023-08-06T06:53:31;3.63;;;1.30;;
33862;SDS011;20158;51.436;-2.742;2023-08-06T06:56:01;2.67;;;1.45;;
33862;SDS011;20158;51.436;-2.742;2023-08-06T06:58:28;3.75;;;1.23;;
33862;SDS011;20158;51.436;-2.742;2023-08-06T07:00:54;3.60;;;1.67;;
33862;SDS011;20158;51.436;-2.742;2023-08-06T07:03:20;3.17;;;1.42;;
33862;SDS011;20158;51.436;-2.742;2023-08-06T07:05:46;3.63;;;1.17;;
33862;SDS011;20158;51.436;-2.742;2023-08-06T07:08:12;3.42;;;1.00;;
33862;SDS011;20158;51.436;-2.742;2023-08-06T07:10:38;3.28;;;1.40;;
33862;SDS011;20158;51.436;-2.742;2023-08-06T07:13:06;3.10;;;1.63;;
33862;SDS011;20158;51.436;-2.742;2023-08-06T07:15:32;2.58;;;1.35;;
33862;SDS011;20158;51.436;-2.742;2023-08-06T07:17:58;2.42;;;1.17;;
33862;SDS011;20158;51.436;-2.742;2023-08-06T07:20:24;3.13;;;1.10;;
33862;SDS011;20158;51.436;-2.742;2023-08-06T07:22:49;2.05;;;1.02;;
33862;SDS011;20158;51.436;-2.742;2023-08-06T07:25:16;2.63;;;1.27;;
33862;SDS011;20158;51.436;-2.742;2023-08-06T07:27:42;1.40;;;1.05;;
33862;SDS011;20158;51.436;-2.742;2023-08-06T07:30:09;1.65;;;1.00;;
33862;SDS011;20158;51.436;-2.742;2023-08-06T07:32:38;2.83;;;1.10;;
33862;SDS011;20158;51.436;-2.742;2023-08-06T07:35:04;3.95;;;1.20;;
33862;SDS011;20158;51.436;-2.742;2023-08-06T07:37:31;3.17;;;1.00;;
33862;SDS011;20158;51.436;-2.742;2023-08-06T07:39:57;4.90;;;1.33;;
33862;SDS011;20158;51.436;-2.742;2023-08-06T07:42:23;1.35;;;0.80;;
33862;SDS011;20158;51.436;-2.742;2023-08-06T07:44:52;2.40;;;0.93;;
33862;SDS011;20158;51.436;-2.742;2023-08-06T07:47:21;3.30;;;0.77;;
33862;SDS011;20158;51.436;-2.742;2023-08-06T07:49:48;2.35;;;0.88;;
33862;SDS011;20158;51.436;-2.742;2023-08-06T07:52:14;1.25;;;0.73;;
33862;SDS011;20158;51.436;-2.742;2023-08-06T07:54:40;3.10;;;1.45;;
33862;SDS011;20158;51.436;-2.742;2023-08-06T07:57:06;3.47;;;1.10;;
33862;SDS011;20158;51.436;-2.742;2023-08-06T07:59:32;5.43;;;2.05;;
33862;SDS011;20158;51.436;-2.742;2023-08-06T08:01:59;5.68;;;2.90;;
33862;SDS011;20158;51.436;-2.742;2023-08-06T08:04:26;11.63;;;5.68;;
33862;SDS011;20158;51.436;-2.742;2023-08-06T08:06:52;7.25;;;3.50;;
33862;SDS011;20158;51.436;-2.742;2023-08-06T08:09:19;6.53;;;4.60;;
33862;SDS011;20158;51.436;-2.742;2023-08-06T08:11:45;3.78;;;2.30;;
33862;SDS011;20158;51.436;-2.742;2023-08-06T08:14:12;4.07;;;2.08;;
33862;SDS011;20158;51.436;-2.742;2023-08-06T08:16:38;4.15;;;1.52;;
33862;SDS011;20158;51.436;-2.742;2023-08-06T08:19:04;3.60;;;1.30;;
33862;SDS011;20158;51.436;-2.742;2023-08-06T08:21:30;2.97;;;1.30;;
33862;SDS011;20158;51.436;-2.742;2023-08-06T08:23:58;2.33;;;0.90;;
33862;SDS011;20158;51.436;-2.742;2023-08-06T08:26:25;2.80;;;1.08;;
33862;SDS011;20158;51.436;-2.742;2023-08-06T08:28:53;2.53;;;1.00;;
33862;SDS011;20158;51.436;-2.742;2023-08-06T08:31:19;4.15;;;0.82;;
33862;SDS011;20158;51.436;-2.742;2023-08-06T08:33:45;3.60;;;1.23;;
33862;SDS011;20158;51.436;-2.742;2023-08-06T08:36:11;2.47;;;1.27;;
33862;SDS011;20158;51.436;-2.742;2023-08-06T08:38:38;3.60;;;0.85;;
33862;SDS011;20158;51.436;-2.742;2023-08-06T08:41:04;28.73;;;10.23;;
33862;SDS011;20158;51.436;-2.742;2023-08-06T08:43:30;19.70;;;7.78;;
33862;SDS011;20158;51.436;-2.742;2023-08-06T08:45:56;22.83;;;5.57;;
33862;SDS011;20158;51.436;-2.742;2023-08-06T08:48:25;4.00;;;1.70;;
33862;SDS011;20158;51.436;-2.742;2023-08-06T08:50:55;11.18;;;2.72;;
33862;SDS011;20158;51.436;-2.742;2023-08-06T08:53:21;2.83;;;1.38;;
33862;SDS011;20158;51.436;-2.742;2023-08-06T08:55:48;97.70;;;40.10;;
33862;SDS011;20158;51.436;-2.742;2023-08-06T08:58:15;12.68;;;6.18;;
33862;SDS011;20158;51.436;-2.742;2023-08-06T09:00:42;46.83;;;21.60;;
33862;SDS011;20158;51.436;-2.742;2023-08-06T09:03:13;93.53;;;37.38;;
33862;SDS011;20158;51.436;-2.742;2023-08-06T09:05:41;58.83;;;18.90;;
33862;SDS011;20158;51.436;-2.742;2023-08-06T09:08:11;8.85;;;4.22;;
33862;SDS011;20158;51.436;-2.742;2023-08-06T09:10:41;5.85;;;2.20;;
33862;SDS011;20158;51.436;-2.742;2023-08-06T09:13:11;2.85;;;1.10;;
33862;SDS011;20158;51.436;-2.742;2023-08-06T09:15:38;1.35;;;0.77;;
33862;SDS011;20158;51.436;-2.742;2023-08-06T09:18:10;5.57;;;1.25;;
33862;SDS011;20158;51.436;-2.742;2023-08-06T09:20:40;2.45;;;1.08;;
33862;SDS011;20158;51.436;-2.742;2023-08-06T09:23:07;2.88;;;1.27;;
33862;SDS011;20158;51.436;-2.742;2023-08-06T09:25:36;5.10;;;1.77;;
33862;SDS011;20158;51.436;-2.742;2023-08-06T09:28:08;3.42;;;1.10;;
33862;SDS011;20158;51.436;-2.742;2023-08-06T09:30:35;2.08;;;1.00;;
33862;SDS011;20158;51.436;-2.742;2023-08-06T09:33:09;4.13;;;1.52;;
33862;SDS011;20158;51.436;-2.742;2023-08-06T09:35:41;2.92;;;1.13;;
33862;SDS011;20158;51.436;-2.742;2023-08-06T09:38:08;2.22;;;1.30;;
33862;SDS011;20158;51.436;-2.742;2023-08-06T09:40:36;3.05;;;1.15;;
33862;SDS011;20158;51.436;-2.742;2023-08-06T09:43:03;3.58;;;1.40;;
33862;SDS011;20158;51.436;-2.742;2023-08-06T09:45:31;1.63;;;1.25;;
33862;SDS011;20158;51.436;-2.742;2023-08-06T09:48:05;5.13;;;2.10;;
33862;SDS011;20158;51.436;-2.742;2023-08-06T09:50:35;4.32;;;2.00;;
33862;SDS011;20158;51.436;-2.742;2023-08-06T09:53:05;4.40;;;1.92;;
33862;SDS011;20158;51.436;-2.742;2023-08-06T09:55:36;4.10;;;1.42;;
33862;SDS011;20158;51.436;-2.742;2023-08-06T09:58:03;3.00;;;1.55;;
33862;SDS011;20158;51.436;-2.742;2023-08-06T10:00:31;3.03;;;1.70;;
33862;SDS011;20158;51.436;-2.742;2023-08-06T10:03:00;3.53;;;1.70;;
33862;SDS011;20158;51.436;-2.742;2023-08-06T10:05:29;1.02;;;0.68;;
33862;SDS011;20158;51.436;-2.742;2023-08-06T10:07:59;1.67;;;1.00;;
33862;SDS011;20158;51.436;-2.742;2023-08-06T10:10:26;1.30;;;0.80;;
33862;SDS011;20158;51.436;-2.742;2023-08-06T10:12:54;2.90;;;0.77;;
33862;SDS011;20158;51.436;-2.742;2023-08-06T10:15:25;1.73;;;0.70;;
33862;SDS011;20158;51.436;-2.742;2023-08-06T10:17:54;3.00;;;1.13;;
33862;SDS011;20158;51.436;-2.742;2023-08-06T10:20:26;1.55;;;0.70;;
33862;SDS011;20158;51.436;-2.742;2023-08-06T10:23:01;1.58;;;0.80;;
33862;SDS011;20158;51.436;-2.742;2023-08-06T10:25:32;3.13;;;1.00;;
33862;SDS011;20158;51.436;-2.742;2023-08-06T10:28:12;4.85;;;1.20;;
33862;SDS011;20158;51.436;-2.742;2023-08-06T10:30:46;2.15;;;0.80;;
33862;SDS011;20158;51.436;-2.742;2023-08-06T10:33:13;5.85;;;1.23;;
33862;SDS011;20158;51.436;-2.742;2023-08-06T10:35:42;3.25;;;1.30;;
33862;SDS011;20158;51.436;-2.742;2023-08-06T10:38:11;2.35;;;0.95;;
33862;SDS011;20158;51.436;-2.742;2023-08-06T10:43:26;1.58;;;0.77;;
33862;SDS011;20158;51.436;-2.742;2023-08-06T10:46:09;2.55;;;1.15;;
33862;SDS011;20158;51.436;-2.742;2023-08-06T10:51:07;1.58;;;0.85;;
33862;SDS011;20158;51.436;-2.742;2023-08-06T10:53:35;1.52;;;0.82;;
33862;SDS011;20158;51.436;-2.742;2023-08-06T10:56:16;0.98;;;0.70;;
33862;SDS011;20158;51.436;-2.742;2023-08-06T10:58:44;2.80;;;1.25;;
33862;SDS011;20158;51.436;-2.742;2023-08-06T11:01:12;3.97;;;1.10;;
33862;SDS011;20158;51.436;-2.742;2023-08-06T11:03:39;2.65;;;0.85;;
33862;SDS011;20158;51.436;-2.742;2023-08-06T11:06:08;9.85;;;1.65;;
33862;SDS011;20158;51.436;-2.742;2023-08-06T11:08:40;1.42;;;1.00;;
33862;SDS011;20158;51.436;-2.742;2023-08-06T11:11:17;5.07;;;2.20;;
33862;SDS011;20158;51.436;-2.742;2023-08-06T11:13:45;2.58;;;1.23;;
33862;SDS011;20158;51.436;-2.742;2023-08-06T11:16:12;1.52;;;1.05;;
33862;SDS011;20158;51.436;-2.742;2023-08-06T11:18:44;3.03;;;1.13;;
33862;SDS011;20158;51.436;-2.742;2023-08-06T11:21:11;3.80;;;2.50;;
33862;SDS011;20158;51.436;-2.742;2023-08-06T11:23:37;9.10;;;6.70;;
33862;SDS011;20158;51.436;-2.742;2023-08-06T11:26:04;34.25;;;28.33;;
33862;SDS011;20158;51.436;-2.742;2023-08-06T11:28:31;34.15;;;30.30;;
33862;SDS011;20158;51.436;-2.742;2023-08-06T11:30:57;31.00;;;25.33;;
33862;SDS011;20158;51.436;-2.742;2023-08-06T11:33:27;27.85;;;23.58;;
33862;SDS011;20158;51.436;-2.742;2023-08-06T11:35:54;29.92;;;25.77;;
33862;SDS011;20158;51.436;-2.742;2023-08-06T11:38:24;26.30;;;23.52;;
33862;SDS011;20158;51.436;-2.742;2023-08-06T11:40:51;25.40;;;22.65;;
33862;SDS011;20158;51.436;-2.742;2023-08-06T11:43:18;21.90;;;17.70;;
33862;SDS011;20158;51.436;-2.742;2023-08-06T11:45:47;19.45;;;17.42;;
33862;SDS011;20158;51.436;-2.742;2023-08-06T11:48:19;22.90;;;19.38;;
33862;SDS011;20158;51.436;-2.742;2023-08-06T11:50:46;17.23;;;14.05;;
33862;SDS011;20158;51.436;-2.742;2023-08-06T11:53:13;16.42;;;14.57;;
33862;SDS011;20158;51.436;-2.742;2023-08-06T11:55:40;13.93;;;7.50;;
33862;SDS011;20158;51.436;-2.742;2023-08-06T11:58:07;4.80;;;3.55;;
33862;SDS011;20158;51.436;-2.742;2023-08-06T12:00:33;10.63;;;7.15;;
33862;SDS011;20158;51.436;-2.742;2023-08-06T12:03:00;8.80;;;6.18;;
33862;SDS011;20158;51.436;-2.742;2023-08-06T12:05:29;7.05;;;5.88;;
33862;SDS011;20158;51.436;-2.742;2023-08-06T12:08:05;5.93;;;5.28;;
33862;SDS011;20158;51.436;-2.742;2023-08-06T12:10:34;6.35;;;5.57;;
33862;SDS011;20158;51.436;-2.742;2023-08-06T12:13:08;5.85;;;4.70;;
33862;SDS011;20158;51.436;-2.742;2023-08-06T12:15:41;8.45;;;6.22;;
33862;SDS011;20158;51.436;-2.742;2023-08-06T12:18:09;10.27;;;5.97;;
33862;SDS011;20158;51.436;-2.742;2023-08-06T12:20:37;6.40;;;4.65;;
33862;SDS011;20158;51.436;-2.742;2023-08-06T12:23:11;6.72;;;4.30;;
33862;SDS011;20158;51.436;-2.742;2023-08-06T12:25:41;6.07;;;4.30;;
33862;SDS011;20158;51.436;-2.742;2023-08-06T12:28:15;4.32;;;3.90;;
33862;SDS011;20158;51.436;-2.742;2023-08-06T12:30:43;9.05;;;4.80;;
33862;SDS011;20158;51.436;-2.742;2023-08-06T12:33:15;4.70;;;3.65;;
33862;SDS011;20158;51.436;-2.742;2023-08-06T12:35:41;5.22;;;3.80;;
33862;SDS011;20158;51.436;-2.742;2023-08-06T12:38:07;4.35;;;3.08;;
33862;SDS011;20158;51.436;-2.742;2023-08-06T12:40:33;6.95;;;3.70;;
33862;SDS011;20158;51.436;-2.742;2023-08-06T12:42:59;3.50;;;1.48;;
33862;SDS011;20158;51.436;-2.742;2023-08-06T12:45:25;3.45;;;1.48;;
33862;SDS011;20158;51.436;-2.742;2023-08-06T12:47:51;1.23;;;1.02;;
33862;SDS011;20158;51.436;-2.742;2023-08-06T12:50:17;2.28;;;1.20;;
33862;SDS011;20158;51.436;-2.742;2023-08-06T12:52:44;2.75;;;0.80;;
33862;SDS011;20158;51.436;-2.742;2023-08-06T12:55:10;6.18;;;1.88;;
33862;SDS011;20158;51.436;-2.742;2023-08-06T12:57:37;6.72;;;1.75;;
33862;SDS011;20158;51.436;-2.742;2023-08-06T13:00:03;4.10;;;1.73;;
33862;SDS011;20158;51.436;-2.742;2023-08-06T13:02:30;2.80;;;1.13;;
33862;SDS011;20158;51.436;-2.742;2023-08-06T13:04:56;1.67;;;1.02;;
33862;SDS011;20158;51.436;-2.742;2023-08-06T13:07:23;3.35;;;1.30;;
33862;SDS011;20158;51.436;-2.742;2023-08-06T13:09:50;2.35;;;1.30;;
33862;SDS011;20158;51.436;-2.742;2023-08-06T13:12:16;2.58;;;1.27;;
33862;SDS011;20158;51.436;-2.742;2023-08-06T13:14:44;3.58;;;1.25;;
33862;SDS011;20158;51.436;-2.742;2023-08-06T13:17:10;3.85;;;1.48;;
33862;SDS011;20158;51.436;-2.742;2023-08-06T13:19:36;2.05;;;1.10;;
33862;SDS011;20158;51.436;-2.742;2023-08-06T13:22:03;3.28;;;1.30;;
33862;SDS011;20158;51.436;-2.742;2023-08-06T13:24:31;2.67;;;1.10;;
33862;SDS011;20158;51.436;-2.742;2023-08-06T13:26:57;1.08;;;0.98;;
33862;SDS011;20158;51.436;-2.742;2023-08-06T13:29:24;2.35;;;1.27;;
33862;SDS011;20158;51.436;-2.742;2023-08-06T13:31:51;1.67;;;1.38;;
33862;SDS011;20158;51.436;-2.742;2023-08-06T13:34:17;2.72;;;1.33;;
33862;SDS011;20158;51.436;-2.742;2023-08-06T13:36:43;1.83;;;1.48;;
33862;SDS011;20158;51.436;-2.742;2023-08-06T13:39:10;2.38;;;1.45;;
33862;SDS011;20158;51.436;-2.742;2023-08-06T13:41:37;2.08;;;1.40;;
33862;SDS011;20158;51.436;-2.742;2023-08-06T13:44:04;1.58;;;1.20;;
33862;SDS011;20158;51.436;-2.742;2023-08-06T13:46:31;1.92;;;1.35;;
33862;SDS011;20158;51.436;-2.742;2023-08-06T13:48:57;1.77;;;1.17;;
33862;SDS011;20158;51.436;-2.742;2023-08-06T13:51:23;3.53;;;1.02;;
33862;SDS011;20158;51.436;-2.742;2023-08-06T13:53:49;1.15;;;1.00;;
33862;SDS011;20158;51.436;-2.742;2023-08-06T13:56:18;1.52;;;1.15;;
33862;SDS011;20158;51.436;-2.742;2023-08-06T13:58:44;2.08;;;1.23;;
33862;SDS011;20158;51.436;-2.742;2023-08-06T14:01:10;1.83;;;1.10;;
33862;SDS011;20158;51.436;-2.742;2023-08-06T14:03:36;2.78;;;1.05;;
33862;SDS011;20158;51.436;-2.742;2023-08-06T14:06:02;1.67;;;1.25;;
33862;SDS011;20158;51.436;-2.742;2023-08-06T14:08:29;2.97;;;1.40;;
33862;SDS011;20158;51.436;-2.742;2023-08-06T14:10:54;1.48;;;1.10;;
33862;SDS011;20158;51.436;-2.742;2023-08-06T14:13:21;1.33;;;1.00;;
33862;SDS011;20158;51.436;-2.742;2023-08-06T14:15:47;1.33;;;1.20;;
33862;SDS011;20158;51.436;-2.742;2023-08-06T14:18:14;2.72;;;1.17;;
33862;SDS011;20158;51.436;-2.742;2023-08-06T14:20:43;3.25;;;1.35;;
33862;SDS011;20158;51.436;-2.742;2023-08-06T14:23:09;4.35;;;1.88;;
33862;SDS011;20158;51.436;-2.742;2023-08-06T14:25:37;4.47;;;1.55;;
33862;SDS011;20158;51.436;-2.742;2023-08-06T14:28:04;2.72;;;1.35;;
33862;SDS011;20158;51.436;-2.742;2023-08-06T14:30:32;4.50;;;2.08;;
33862;SDS011;20158;51.436;-2.742;2023-08-06T14:32:59;3.83;;;1.35;;
33862;SDS011;20158;51.436;-2.742;2023-08-06T14:35:27;4.03;;;1.75;;
33862;SDS011;20158;51.436;-2.742;2023-08-06T14:37:53;2.92;;;1.42;;
33862;SDS011;20158;51.436;-2.742;2023-08-06T14:40:20;8.10;;;2.10;;
33862;SDS011;20158;51.436;-2.742;2023-08-06T14:42:46;4.03;;;1.38;;
33862;SDS011;20158;51.436;-2.742;2023-08-06T14:45:12;3.08;;;1.42;;
33862;SDS011;20158;51.436;-2.742;2023-08-06T14:47:38;12.70;;;2.58;;
33862;SDS011;20158;51.436;-2.742;2023-08-06T14:50:05;3.28;;;1.25;;